PADK/ADK METAR and TAF weather

Enter ICAO airport designator
Station Type Date Time Source
PADK METAR 2020/07/12 00:56 UTC NOAA

PADK 120056Z AUTO 04011KT 10SM -RA OVC005 09/08 A2968 RMK AO2 SLP049 P0001 T00890083


Station Type Date Time Source
PADK Decoded METAR 2020/07/12 00:56 UTC NOAA

Adak Island, Adak Airport, AK, United States (PADK) 51-52-40N 176-38-45W 4M
Jul 11, 2020 - 08:56 PM EDT / 2020.07.12 0056 UTC
Wind: from the NE (040 degrees) at 13 MPH (11 KT):0
Visibility: 10 mile(s):0
Sky conditions: overcast
Weather: light rain
Precipitation last hour: 0.01 inches
Temperature: 48.0 F (8.9 C)
Dew Point: 46.9 F (8.3 C)
Relative Humidity: 96%
Pressure (altimeter): 29.68 in. Hg (1005 hPa)
ob: PADK 120056Z AUTO 04011KT 10SM -RA OVC005 09/08 A2968 RMK AO2 SLP049 P0001 T00890083
cycle: 1

Station Type Date Time Source
PADK TAF 2007/04/07 12:54 UTC NOAA

TAF PADK 070404 33010G15KT 9999 FEW025 BKN030 OVC050 QNH2900INS T03/00Z TM01/18Z COR 1205 LAST NO
AMDS AFT 0712;

Example: see airport list